Time;durP1;ratioP1;P1;durP2;ratioP2;P2;SDS_P1;SDS_P2;PMS_P1;PMS_P2;Temp;Humidity;BMP_temperature;BMP_pressure;BME280_temperature;BME280_humidity;BME280_pressure;Samples;Min_cycle;Max_cycle;Signal;HPM_P1;HPM_P2
2023/07/24 00:01:53;;;;;;;12.60;8.40;;;;;;;;;;5035805;28;20029;-79
2023/07/24 00:04:19;;;;;;;12.95;9.23;;;;;;;;;;5018132;28;20094;-80
2023/07/24 00:06:44;;;;;;;10.68;8.05;;;;;;;;;;5014551;28;20112;-79
2023/07/24 00:09:10;;;;;;;13.73;8.68;;;;;;;;;;5015767;28;20045;-80
2023/07/24 00:11:35;;;;;;;14.98;8.80;;;;;;;;;;5029840;28;20026;-80
2023/07/24 00:14:00;;;;;;;11.68;8.60;;;;;;;;;;5015670;28;20415;-80
2023/07/24 00:16:26;;;;;;;13.40;9.02;;;;;;;;;;5015235;28;20361;-80
2023/07/24 00:18:51;;;;;;;12.18;8.77;;;;;;;;;;5015339;28;20398;-80
2023/07/24 00:21:17;;;;;;;13.15;8.55;;;;;;;;;;5015466;28;20030;-80
2023/07/24 00:23:42;;;;;;;20.60;10.27;;;;;;;;;;5015496;28;20030;-80
2023/07/24 00:26:08;;;;;;;14.35;8.82;;;;;;;;;;5014283;28;20120;-81
2023/07/24 00:28:33;;;;;;;14.20;9.70;;;;;;;;;;5014191;28;20029;-80
2023/07/24 00:30:58;;;;;;;14.55;8.63;;;;;;;;;;5015145;28;20050;-80
2023/07/24 00:33:24;;;;;;;11.85;9.45;;;;;;;;;;5015333;28;20368;-81
2023/07/24 00:35:49;;;;;;;13.07;8.98;;;;;;;;;;5014056;28;20079;-80
2023/07/24 00:38:15;;;;;;;13.00;9.40;;;;;;;;;;5014189;28;20022;-80
2023/07/24 00:40:40;;;;;;;13.40;9.15;;;;;;;;;;5030654;28;20022;-80
2023/07/24 00:43:05;;;;;;;15.93;9.75;;;;;;;;;;5030613;28;20030;-80
2023/07/24 00:45:31;;;;;;;12.80;9.25;;;;;;;;;;5014859;28;20048;-80
2023/07/24 00:47:56;;;;;;;13.98;9.48;;;;;;;;;;5015024;28;20461;-80
2023/07/24 00:50:22;;;;;;;11.68;8.95;;;;;;;;;;4997589;28;20034;-80
2023/07/24 00:52:47;;;;;;;14.43;9.43;;;;;;;;;;5030240;28;20030;-80
2023/07/24 00:55:13;;;;;;;12.00;9.32;;;;;;;;;;5014254;28;20030;-80
2023/07/24 00:57:38;;;;;;;15.65;9.15;;;;;;;;;;5029991;28;20026;-80
2023/07/24 01:00:04;;;;;;;14.23;8.90;;;;;;;;;;5030145;28;20033;-81
2023/07/24 01:02:30;;;;;;;13.90;9.52;;;;;;;;;;5013818;28;20049;-80
2023/07/24 01:04:55;;;;;;;14.77;9.10;;;;;;;;;;5014894;28;20030;-80
2023/07/24 01:07:21;;;;;;;14.27;9.40;;;;;;;;;;5016814;28;20021;-80
2023/07/24 01:09:47;;;;;;;12.05;9.38;;;;;;;;;;5017048;28;20037;-80
2023/07/24 01:12:18;;;;;;;12.02;9.23;;;;;;;;;;5016752;28;20066;-80
2023/07/24 01:14:54;;;;;;;12.10;9.20;;;;;;;;;;5016739;28;20037;-80
2023/07/24 01:17:23;;;;;;;13.30;8.90;;;;;;;;;;5016883;28;20033;-80
2023/07/24 01:19:49;;;;;;;16.60;8.95;;;;;;;;;;5016680;28;20053;-80
2023/07/24 01:22:24;;;;;;;13.90;9.52;;;;;;;;;;5016194;28;20389;-80
2023/07/24 01:25:09;;;;;;;13.98;9.38;;;;;;;;;;5016610;28;20028;-81
2023/07/24 01:27:35;;;;;;;16.73;9.73;;;;;;;;;;5033877;28;20344;-80
2023/07/24 01:30:00;;;;;;;15.93;10.68;;;;;;;;;;5034308;28;20029;-80
2023/07/24 01:32:26;;;;;;;15.50;9.75;;;;;;;;;;5016430;28;20037;-80
2023/07/24 01:34:52;;;;;;;16.08;9.10;;;;;;;;;;5016416;28;20041;-80
2023/07/24 01:37:17;;;;;;;15.90;10.57;;;;;;;;;;5016430;28;20124;-80
2023/07/24 01:39:44;;;;;;;14.15;9.75;;;;;;;;;;5034569;28;20104;-81
2023/07/24 01:42:09;;;;;;;17.15;9.52;;;;;;;;;;5016048;28;20072;-80
2023/07/24 01:44:35;;;;;;;15.10;10.52;;;;;;;;;;5032739;28;20469;-81
2023/07/24 01:47:00;;;;;;;15.20;10.13;;;;;;;;;;5034204;28;20036;-80
2023/07/24 01:49:25;;;;;;;16.10;10.50;;;;;;;;;;5033876;28;20033;-80
2023/07/24 01:51:51;;;;;;;14.95;10.13;;;;;;;;;;5032957;28;20429;-80
2023/07/24 01:54:16;;;;;;;14.25;10.25;;;;;;;;;;5016025;28;20368;-80
2023/07/24 01:56:43;;;;;;;16.15;10.73;;;;;;;;;;5033466;28;20038;-80
2023/07/24 01:59:09;;;;;;;20.15;10.45;;;;;;;;;;5033734;28;20040;-81
2023/07/24 02:01:34;;;;;;;12.73;9.50;;;;;;;;;;5032533;28;20555;-80
2023/07/24 02:04:00;;;;;;;16.92;9.65;;;;;;;;;;5034289;28;20033;-80
2023/07/24 02:06:25;;;;;;;14.52;9.18;;;;;;;;;;5016266;28;20048;-80
2023/07/24 02:08:51;;;;;;;12.20;9.40;;;;;;;;;;5016046;28;20350;-80
2023/07/24 02:11:16;;;;;;;15.40;9.43;;;;;;;;;;5033699;28;20435;-80
2023/07/24 02:13:45;;;;;;;14.48;9.13;;;;;;;;;;5034102;28;20118;-81
2023/07/24 02:16:11;;;;;;;12.88;9.32;;;;;;;;;;4999765;28;20119;-79
2023/07/24 02:18:38;;;;;;;15.38;9.80;;;;;;;;;;5015992;28;20053;-81
2023/07/24 02:21:03;;;;;;;12.85;9.05;;;;;;;;;;4999778;28;20095;-80
2023/07/24 02:23:29;;;;;;;17.55;8.95;;;;;;;;;;5016119;28;20437;-80
2023/07/24 02:25:54;;;;;;;14.50;9.60;;;;;;;;;;5032109;28;20534;-81
2023/07/24 02:28:19;;;;;;;15.82;9.35;;;;;;;;;;5015727;28;20022;-80
2023/07/24 02:30:46;;;;;;;15.98;8.80;;;;;;;;;;5033410;28;20490;-80
2023/07/24 02:33:12;;;;;;;14.88;9.10;;;;;;;;;;5032369;28;20479;-81
2023/07/24 02:35:41;;;;;;;16.33;9.50;;;;;;;;;;5036095;28;20075;-80
2023/07/24 02:38:06;;;;;;;16.15;8.98;;;;;;;;;;5019509;28;20039;-80
2023/07/24 02:40:32;;;;;;;11.77;8.93;;;;;;;;;;5019243;28;20029;-79
2023/07/24 02:42:57;;;;;;;12.40;8.45;;;;;;;;;;5019419;28;20038;-80
2023/07/24 02:45:23;;;;;;;13.23;8.57;;;;;;;;;;5037082;28;20029;-80
2023/07/24 02:47:48;;;;;;;14.63;9.30;;;;;;;;;;5036964;28;20437;-80
2023/07/24 02:50:14;;;;;;;16.48;8.68;;;;;;;;;;5019437;28;20582;-80
2023/07/24 02:52:39;;;;;;;13.25;8.80;;;;;;;;;;5036983;28;20128;-80
2023/07/24 02:55:05;;;;;;;11.73;8.75;;;;;;;;;;5036603;28;20033;-80
2023/07/24 02:57:30;;;;;;;16.00;8.90;;;;;;;;;;5019142;28;20052;-80
2023/07/24 02:59:56;;;;;;;12.23;8.32;;;;;;;;;;5035642;28;20029;-80
2023/07/24 03:02:21;;;;;;;13.68;8.40;;;;;;;;;;5037035;28;20030;-80
2023/07/24 03:04:46;;;;;;;15.52;8.25;;;;;;;;;;5036560;28;20411;-80
2023/07/24 03:07:12;;;;;;;15.07;8.43;;;;;;;;;;5035756;28;20033;-80
2023/07/24 03:09:37;;;;;;;15.30;8.45;;;;;;;;;;5036338;28;20073;-80
2023/07/24 03:12:03;;;;;;;20.73;8.68;;;;;;;;;;5036841;28;20120;-80
2023/07/24 03:14:28;;;;;;;13.70;8.38;;;;;;;;;;5037081;28;20117;-80
2023/07/24 03:16:54;;;;;;;11.93;8.15;;;;;;;;;;5036547;28;20069;-80
2023/07/24 03:19:20;;;;;;;12.82;8.00;;;;;;;;;;5036428;28;20140;-80
2023/07/24 03:21:45;;;;;;;13.05;8.30;;;;;;;;;;5036425;28;20029;-79
2023/07/24 03:24:11;;;;;;;12.82;8.50;;;;;;;;;;5034788;28;20048;-80
2023/07/24 03:26:36;;;;;;;14.63;8.13;;;;;;;;;;5018586;28;20387;-81
2023/07/24 03:29:02;;;;;;;14.10;8.27;;;;;;;;;;5036350;28;20040;-80
2023/07/24 03:31:27;;;;;;;12.43;7.95;;;;;;;;;;5018919;28;20160;-80
2023/07/24 03:33:53;;;;;;;12.35;8.10;;;;;;;;;;5036381;28;20033;-81
2023/07/24 03:36:18;;;;;;;13.30;8.63;;;;;;;;;;5036086;28;20112;-80
2023/07/24 03:39:02;;;;;;;13.65;7.65;;;;;;;;;;5036201;28;20041;-80
2023/07/24 03:41:28;;;;;;;12.13;8.05;;;;;;;;;;5036007;28;20051;-80
2023/07/24 03:43:53;;;;;;;13.48;8.35;;;;;;;;;;5035405;28;20492;-81
2023/07/24 03:46:18;;;;;;;12.32;8.55;;;;;;;;;;5035771;28;20447;-80
2023/07/24 03:48:44;;;;;;;10.32;7.85;;;;;;;;;;5018432;28;20472;-81
2023/07/24 03:51:09;;;;;;;16.90;8.68;;;;;;;;;;5035919;28;20483;-81
2023/07/24 03:53:35;;;;;;;19.08;8.23;;;;;;;;;;5036285;28;20037;-81
2023/07/24 03:56:00;;;;;;;16.05;8.90;;;;;;;;;;5018401;28;20116;-81
2023/07/24 03:58:26;;;;;;;13.43;8.02;;;;;;;;;;5018338;28;20032;-81
2023/07/24 04:00:51;;;;;;;12.85;8.13;;;;;;;;;;5001936;28;20026;-81
2023/07/24 04:03:17;;;;;;;17.23;8.23;;;;;;;;;;5018017;28;20420;-81
2023/07/24 04:05:42;;;;;;;11.60;7.95;;;;;;;;;;5017987;28;20096;-80
2023/07/24 04:08:07;;;;;;;11.88;8.30;;;;;;;;;;5017670;28;20029;-81
2023/07/24 04:10:33;;;;;;;13.48;8.63;;;;;;;;;;5035489;28;20389;-81
2023/07/24 04:12:58;;;;;;;13.40;8.13;;;;;;;;;;5017800;28;20099;-81
2023/07/24 04:15:24;;;;;;;13.77;8.43;;;;;;;;;;5018121;28;20087;-81
2023/07/24 04:17:49;;;;;;;12.30;8.63;;;;;;;;;;5035407;28;20152;-81
2023/07/24 04:20:14;;;;;;;13.13;8.70;;;;;;;;;;5034290;28;20072;-81
2023/07/24 04:22:40;;;;;;;13.60;8.80;;;;;;;;;;5033932;28;20025;-81
2023/07/24 04:25:06;;;;;;;13.02;8.45;;;;;;;;;;5035632;28;20022;-81
2023/07/24 04:27:31;;;;;;;13.25;8.40;;;;;;;;;;5017723;28;20084;-81
2023/07/24 04:29:56;;;;;;;15.35;8.32;;;;;;;;;;5017496;28;20022;-81
2023/07/24 04:32:22;;;;;;;13.10;8.82;;;;;;;;;;5035393;28;20455;-81
2023/07/24 04:34:47;;;;;;;15.18;8.85;;;;;;;;;;5034081;28;20078;-81
2023/07/24 04:37:13;;;;;;;17.15;9.00;;;;;;;;;;5017062;28;20065;-81
2023/07/24 04:39:38;;;;;;;16.73;8.00;;;;;;;;;;5017422;28;20128;-81
2023/07/24 04:42:04;;;;;;;15.13;8.95;;;;;;;;;;5035253;28;20025;-81
2023/07/24 04:44:30;;;;;;;12.32;8.68;;;;;;;;;;5017227;28;20033;-81
2023/07/24 04:46:55;;;;;;;12.95;8.38;;;;;;;;;;5033708;28;20029;-81
2023/07/24 04:49:21;;;;;;;12.88;8.45;;;;;;;;;;5017699;28;20036;-81
2023/07/24 04:51:46;;;;;;;13.68;8.13;;;;;;;;;;5034571;28;20384;-81
2023/07/24 04:54:12;;;;;;;13.30;8.43;;;;;;;;;;5034756;28;20369;-81
2023/07/24 04:56:37;;;;;;;14.65;8.68;;;;;;;;;;5034244;28;20029;-81
2023/07/24 04:59:02;;;;;;;13.68;8.57;;;;;;;;;;5034339;28;20103;-82
2023/07/24 05:01:28;;;;;;;11.60;8.10;;;;;;;;;;5016919;28;20045;-81
2023/07/24 05:03:53;;;;;;;14.02;8.38;;;;;;;;;;5034635;28;20044;-81
2023/07/24 05:06:19;;;;;;;12.88;8.45;;;;;;;;;;5034426;28;20140;-81
2023/07/24 05:08:44;;;;;;;19.48;8.40;;;;;;;;;;5034490;28;20120;-81
2023/07/24 05:11:09;;;;;;;21.02;8.77;;;;;;;;;;5034494;28;20507;-81
2023/07/24 05:13:35;;;;;;;15.95;9.43;;;;;;;;;;5033218;28;20033;-81
2023/07/24 05:16:00;;;;;;;24.50;9.88;;;;;;;;;;5034347;28;20056;-81
2023/07/24 05:18:26;;;;;;;24.13;9.40;;;;;;;;;;5034411;28;20021;-81
2023/07/24 05:20:51;;;;;;;23.48;9.30;;;;;;;;;;5034629;28;20029;-81
2023/07/24 05:23:17;;;;;;;18.75;9.65;;;;;;;;;;5034500;28;20017;-81
2023/07/24 05:25:42;;;;;;;25.15;9.82;;;;;;;;;;5034361;28;20116;-81
2023/07/24 05:28:08;;;;;;;15.10;9.25;;;;;;;;;;5016573;28;20056;-81
2023/07/24 05:30:33;;;;;;;20.85;9.45;;;;;;;;;;5016455;28;20057;-81
2023/07/24 05:32:59;;;;;;;26.33;10.48;;;;;;;;;;5016561;28;20022;-81
2023/07/24 05:35:24;;;;;;;20.55;10.32;;;;;;;;;;5016568;28;20029;-81
2023/07/24 05:37:50;;;;;;;23.25;9.60;;;;;;;;;;5034028;28;20036;-81
2023/07/24 05:40:15;;;;;;;17.05;9.52;;;;;;;;;;5033976;28;20026;-82
2023/07/24 05:42:41;;;;;;;18.00;10.05;;;;;;;;;;5032826;28;20040;-82
2023/07/24 05:45:08;;;;;;;13.93;9.95;;;;;;;;;;5016229;28;20040;-81
2023/07/24 05:47:34;;;;;;;17.98;9.68;;;;;;;;;;5000198;28;20512;-82
2023/07/24 05:49:59;;;;;;;25.98;10.52;;;;;;;;;;5016305;28;20057;-81
2023/07/24 05:52:24;;;;;;;14.15;9.05;;;;;;;;;;5033961;28;20029;-82
2023/07/24 05:54:50;;;;;;;16.60;9.80;;;;;;;;;;5034099;28;20080;-81
2023/07/24 05:57:15;;;;;;;33.05;10.55;;;;;;;;;;5034020;28;20041;-82
2023/07/24 05:59:41;;;;;;;16.75;9.68;;;;;;;;;;5016162;28;20025;-82
2023/07/24 06:02:07;;;;;;;29.60;9.98;;;;;;;;;;5032613;28;20032;-82
2023/07/24 06:04:33;;;;;;;15.75;9.10;;;;;;;;;;5032370;28;20027;-79
2023/07/24 06:06:58;;;;;;;20.50;9.23;;;;;;;;;;5033857;28;20131;-79
2023/07/24 06:09:23;;;;;;;13.18;8.90;;;;;;;;;;5036293;28;20083;-82
2023/07/24 06:11:49;;;;;;;15.13;9.25;;;;;;;;;;5038132;28;20068;-79
2023/07/24 06:14:14;;;;;;;15.98;9.50;;;;;;;;;;5038078;28;20034;-80
2023/07/24 06:16:40;;;;;;;15.25;10.00;;;;;;;;;;5038130;28;20034;-82
2023/07/24 06:19:05;;;;;;;12.82;9.35;;;;;;;;;;5019616;28;20033;-79
2023/07/24 06:21:31;;;;;;;13.05;9.20;;;;;;;;;;5037593;28;20060;-79
2023/07/24 06:23:56;;;;;;;15.65;10.25;;;;;;;;;;5037606;28;20045;-80
2023/07/24 06:26:22;;;;;;;15.18;9.30;;;;;;;;;;5037916;28;20033;-80
2023/07/24 06:28:47;;;;;;;16.70;9.25;;;;;;;;;;5037370;28;20029;-80
2023/07/24 06:31:13;;;;;;;13.13;9.80;;;;;;;;;;5037533;28;20030;-80
2023/07/24 06:33:38;;;;;;;15.32;10.00;;;;;;;;;;5037351;28;20065;-80
2023/07/24 06:36:04;;;;;;;13.85;9.38;;;;;;;;;;5019647;28;20040;-79
2023/07/24 06:38:29;;;;;;;16.67;9.82;;;;;;;;;;5019746;28;20061;-81
2023/07/24 06:40:55;;;;;;;16.15;10.57;;;;;;;;;;5037223;28;20025;-81
2023/07/24 06:43:20;;;;;;;15.68;10.38;;;;;;;;;;5019501;28;20029;-81
2023/07/24 06:45:45;;;;;;;15.40;10.30;;;;;;;;;;5019535;28;20437;-81
2023/07/24 06:48:11;;;;;;;18.55;10.18;;;;;;;;;;5035709;28;20456;-80
2023/07/24 06:50:36;;;;;;;13.63;10.77;;;;;;;;;;5037164;28;20495;-80
2023/07/24 06:53:02;;;;;;;16.85;10.13;;;;;;;;;;5035869;28;20036;-81
2023/07/24 06:55:27;;;;;;;18.73;10.20;;;;;;;;;;5037168;28;20030;-81
2023/07/24 06:57:52;;;;;;;15.02;10.13;;;;;;;;;;5036963;28;20045;-80
2023/07/24 07:00:18;;;;;;;17.83;11.02;;;;;;;;;;5037409;28;20033;-81
2023/07/24 07:02:43;;;;;;;18.30;11.38;;;;;;;;;;5036641;28;20365;-80
2023/07/24 07:05:09;;;;;;;15.57;10.75;;;;;;;;;;5019037;28;20058;-81
2023/07/24 07:07:34;;;;;;;15.95;10.35;;;;;;;;;;5019032;28;20044;-81
2023/07/24 07:10:00;;;;;;;16.58;10.98;;;;;;;;;;5035688;28;20028;-79
2023/07/24 07:12:25;;;;;;;17.73;10.70;;;;;;;;;;5036586;28;20538;-81
2023/07/24 07:14:50;;;;;;;16.00;11.05;;;;;;;;;;5036618;28;20017;-80
2023/07/24 07:17:16;;;;;;;17.00;10.07;;;;;;;;;;5036258;28;20033;-81
2023/07/24 07:19:41;;;;;;;15.35;10.90;;;;;;;;;;5036405;28;20127;-81
2023/07/24 07:22:07;;;;;;;16.73;10.52;;;;;;;;;;5036495;28;20452;-81
2023/07/24 07:24:32;;;;;;;12.80;9.55;;;;;;;;;;5019003;28;20033;-80
2023/07/24 07:26:58;;;;;;;11.57;9.88;;;;;;;;;;5018882;28;20036;-81
2023/07/24 07:29:23;;;;;;;14.93;10.88;;;;;;;;;;5036546;28;20093;-80
2023/07/24 07:31:48;;;;;;;17.00;10.98;;;;;;;;;;5036127;28;20029;-81
2023/07/24 07:34:14;;;;;;;20.92;12.00;;;;;;;;;;5036528;28;20037;-81
2023/07/24 07:36:39;;;;;;;21.05;12.23;;;;;;;;;;5034989;28;20453;-80
2023/07/24 07:39:05;;;;;;;13.93;10.25;;;;;;;;;;5036721;28;20029;-81
2023/07/24 07:41:30;;;;;;;14.43;10.00;;;;;;;;;;5036147;28;20022;-81
2023/07/24 07:43:57;;;;;;;13.05;9.48;;;;;;;;;;5035914;28;20032;-81
2023/07/24 07:46:22;;;;;;;14.20;9.05;;;;;;;;;;5018270;28;20029;-81
2023/07/24 07:48:49;;;;;;;12.07;8.30;;;;;;;;;;5018329;28;20120;-82
2023/07/24 07:51:14;;;;;;;16.60;9.10;;;;;;;;;;5002361;28;20538;-81
2023/07/24 07:53:40;;;;;;;12.73;8.68;;;;;;;;;;5018352;28;20025;-81
2023/07/24 07:56:05;;;;;;;11.30;8.48;;;;;;;;;;5036128;28;20189;-81
2023/07/24 07:58:30;;;;;;;13.07;8.52;;;;;;;;;;5002285;28;20030;-82
2023/07/24 08:00:56;;;;;;;11.35;8.90;;;;;;;;;;5001931;28;20445;-81
2023/07/24 08:03:21;;;;;;;11.90;8.90;;;;;;;;;;5035818;28;20369;-81
2023/07/24 08:05:47;;;;;;;14.55;9.68;;;;;;;;;;5035780;28;20049;-81
2023/07/24 08:08:13;;;;;;;14.75;9.57;;;;;;;;;;5035593;28;20468;-81
2023/07/24 08:10:38;;;;;;;12.98;9.50;;;;;;;;;;5035810;28;20029;-81
2023/07/24 08:13:04;;;;;;;12.02;9.30;;;;;;;;;;5034802;28;20449;-81
2023/07/24 08:15:34;;;;;;;13.63;9.70;;;;;;;;;;5035318;28;20377;-81
2023/07/24 08:17:59;;;;;;;13.85;9.18;;;;;;;;;;5034519;28;20049;-81
2023/07/24 08:20:25;;;;;;;14.65;10.38;;;;;;;;;;5001639;28;20049;-81
2023/07/24 08:22:50;;;;;;;16.02;10.55;;;;;;;;;;5017751;28;20524;-80
2023/07/24 08:25:16;;;;;;;11.85;9.68;;;;;;;;;;5017546;28;20031;-80
2023/07/24 08:27:42;;;;;;;20.13;10.52;;;;;;;;;;5017554;28;20075;-81
2023/07/24 08:30:08;;;;;;;16.60;10.35;;;;;;;;;;5017449;28;20026;-81
2023/07/24 08:32:33;;;;;;;23.75;11.38;;;;;;;;;;5033282;28;20022;-81
2023/07/24 08:34:59;;;;;;;17.35;10.80;;;;;;;;;;5017384;28;20036;-80
2023/07/24 08:37:24;;;;;;;16.27;10.60;;;;;;;;;;5017400;28;20052;-80
2023/07/24 08:39:49;;;;;;;16.60;10.88;;;;;;;;;;5017303;28;20021;-81
2023/07/24 08:42:15;;;;;;;15.65;10.90;;;;;;;;;;5033887;28;20425;-81
2023/07/24 08:44:41;;;;;;;17.02;11.15;;;;;;;;;;5017023;28;20021;-81
2023/07/24 08:47:09;;;;;;;16.10;11.20;;;;;;;;;;5001124;28;20107;-81
2023/07/24 08:49:34;;;;;;;14.23;10.45;;;;;;;;;;5017163;28;20032;-81
2023/07/24 08:52:00;;;;;;;12.85;10.43;;;;;;;;;;5017418;28;20104;-81
2023/07/24 08:54:26;;;;;;;14.63;10.13;;;;;;;;;;5033630;28;20414;-81
2023/07/24 08:56:52;;;;;;;17.00;10.48;;;;;;;;;;5017566;28;20037;-81
2023/07/24 08:59:17;;;;;;;16.73;10.00;;;;;;;;;;5017038;28;20440;-81
2023/07/24 09:01:43;;;;;;;12.77;9.30;;;;;;;;;;5000603;28;20039;-81
2023/07/24 09:12:17;;;;;;;14.20;8.82;;;;;;;;;;5136705;28;20081;-82
2023/07/24 09:14:45;;;;;;;11.98;8.18;;;;;;;;;;5097252;28;20510;-82
2023/07/24 09:17:11;;;;;;;9.80;8.10;;;;;;;;;;5133487;28;20040;-82
2023/07/24 09:19:43;;;;;;;9.63;7.40;;;;;;;;;;5132337;28;20110;-82
2023/07/24 09:22:12;;;;;;;10.80;7.43;;;;;;;;;;5132258;28;20110;-82
2023/07/24 09:24:38;;;;;;;11.52;8.23;;;;;;;;;;5114417;28;20051;-82
2023/07/24 09:27:05;;;;;;;11.38;7.93;;;;;;;;;;5132430;28;20452;-83
2023/07/24 09:29:31;;;;;;;15.73;8.35;;;;;;;;;;5132644;28;20130;-82
2023/07/24 09:31:57;;;;;;;10.95;8.90;;;;;;;;;;5132235;28;20053;-82
2023/07/24 09:34:22;;;;;;;12.38;9.57;;;;;;;;;;5114397;28;20059;-83
2023/07/24 09:36:48;;;;;;;13.48;9.15;;;;;;;;;;5132426;28;20496;-82
2023/07/24 09:39:13;;;;;;;13.27;8.98;;;;;;;;;;5113782;28;20034;-82
2023/07/24 09:41:39;;;;;;;18.23;9.50;;;;;;;;;;5132167;28;20020;-81
2023/07/24 09:44:05;;;;;;;14.60;9.00;;;;;;;;;;5131999;28;20689;-82
2023/07/24 09:46:32;;;;;;;12.27;8.85;;;;;;;;;;5132037;28;20081;-83
2023/07/24 09:49:08;;;;;;;15.65;9.52;;;;;;;;;;5132110;28;20285;-83
2023/07/24 09:51:33;;;;;;;14.32;9.70;;;;;;;;;;5096359;28;20035;-83
2023/07/24 09:54:07;;;;;;;13.70;9.80;;;;;;;;;;5113735;28;20027;-82
2023/07/24 09:56:32;;;;;;;14.10;10.10;;;;;;;;;;5135335;28;20091;-80
2023/07/24 09:58:58;;;;;;;10.75;9.02;;;;;;;;;;5138391;28;20020;-81
2023/07/24 10:01:23;;;;;;;12.00;9.23;;;;;;;;;;5113520;28;20028;-82
2023/07/24 10:03:50;;;;;;;11.95;9.63;;;;;;;;;;5113031;28;20040;-82
2023/07/24 10:06:16;;;;;;;14.57;9.73;;;;;;;;;;5132704;28;20035;-82
2023/07/24 10:08:41;;;;;;;13.27;9.45;;;;;;;;;;5131252;28;20027;-81
2023/07/24 10:11:12;;;;;;;14.35;10.18;;;;;;;;;;5113470;28;20166;-81
2023/07/24 10:13:37;;;;;;;15.07;9.88;;;;;;;;;;5129379;28;20027;-82
2023/07/24 10:16:06;;;;;;;14.45;9.85;;;;;;;;;;5117335;28;20099;-81
2023/07/24 10:18:31;;;;;;;15.02;10.27;;;;;;;;;;5099824;28;20028;-81
2023/07/24 10:21:15;;;;;;;13.23;9.07;;;;;;;;;;5121493;28;20038;-81
2023/07/24 10:23:44;;;;;;;13.38;9.55;;;;;;;;;;5118983;28;20035;-81
2023/07/24 10:26:09;;;;;;;16.05;9.93;;;;;;;;;;5117306;28;20027;-82
2023/07/24 10:28:38;;;;;;;12.43;9.35;;;;;;;;;;5082454;28;20027;-82
2023/07/24 10:31:05;;;;;;;;;;;;;;;;;;5117920;28;20024;-81
2023/07/24 10:33:31;;;;;;;16.45;11.18;;;;;;;;;;5119384;28;20276;-81
2023/07/24 10:36:10;;;;;;;14.30;9.10;;;;;;;;;;5118139;28;20035;-80
2023/07/24 10:38:42;;;;;;;12.27;9.10;;;;;;;;;;5118233;28;20418;-82
2023/07/24 10:41:08;;;;;;;12.93;9.60;;;;;;;;;;5099899;28;20023;-81
2023/07/24 10:43:47;;;;;;;12.35;9.43;;;;;;;;;;5121878;28;20019;-80
2023/07/24 10:46:13;;;;;;;12.88;9.07;;;;;;;;;;5089419;28;20420;-81
2023/07/24 10:48:42;;;;;;;15.57;10.43;;;;;;;;;;5099195;28;20047;-81
2023/07/24 10:51:08;;;;;;;12.18;9.07;;;;;;;;;;5117267;28;20102;-81
2023/07/24 10:53:37;;;;;;;14.98;9.20;;;;;;;;;;5098922;28;20108;-82
2023/07/24 10:56:04;;;;;;;17.00;10.32;;;;;;;;;;5116955;28;20026;-81
2023/07/24 10:58:29;;;;;;;16.85;10.98;;;;;;;;;;5116972;28;20457;-81
2023/07/24 11:00:56;;;;;;;14.60;10.52;;;;;;;;;;5117376;28;20066;-81
2023/07/24 11:03:21;;;;;;;15.57;10.55;;;;;;;;;;5116953;28;20035;-80
2023/07/24 11:05:47;;;;;;;13.48;9.60;;;;;;;;;;5118421;28;20111;-83
2023/07/24 11:08:16;;;;;;;14.07;9.98;;;;;;;;;;5123704;28;20023;-82
2023/07/24 11:11:01;;;;;;;15.95;10.38;;;;;;;;;;5100262;28;20027;-82
2023/07/24 11:13:27;;;;;;;15.50;10.35;;;;;;;;;;5117043;28;20027;-82
2023/07/24 11:15:53;;;;;;;15.85;10.25;;;;;;;;;;5117119;28;20024;-82
2023/07/24 11:18:22;;;;;;;17.27;11.07;;;;;;;;;;5116736;28;20040;-82
2023/07/24 11:20:55;;;;;;;15.13;10.48;;;;;;;;;;5098976;28;20024;-82
2023/07/24 11:23:20;;;;;;;14.88;10.23;;;;;;;;;;5116307;28;20067;-82
2023/07/24 11:25:46;;;;;;;16.13;9.80;;;;;;;;;;5115196;28;20468;-82
2023/07/24 11:28:17;;;;;;;17.45;10.95;;;;;;;;;;5116366;28;20377;-82
2023/07/24 11:30:43;;;;;;;19.83;9.82;;;;;;;;;;5117723;28;20027;-82
2023/07/24 11:33:09;;;;;;;16.83;9.75;;;;;;;;;;5118568;28;20035;-82
2023/07/24 11:35:35;;;;;;;12.95;9.57;;;;;;;;;;5081147;28;20035;-83
2023/07/24 11:38:01;;;;;;;15.60;10.40;;;;;;;;;;5097883;28;20035;-82
2023/07/24 11:40:34;;;;;;;13.93;10.13;;;;;;;;;;5098358;28;20429;-81
2023/07/24 11:42:59;;;;;;;14.55;9.73;;;;;;;;;;5097700;28;20035;-82
2023/07/24 11:45:25;;;;;;;16.65;10.15;;;;;;;;;;5098029;28;20034;-82
2023/07/24 11:47:50;;;;;;;12.73;9.85;;;;;;;;;;5081089;28;20100;-82
2023/07/24 11:50:16;;;;;;;16.38;10.75;;;;;;;;;;5097904;28;20035;-80
2023/07/24 11:52:46;;;;;;;17.58;11.02;;;;;;;;;;5116925;28;20039;-81
2023/07/24 11:55:18;;;;;;;15.00;10.35;;;;;;;;;;5124371;28;20027;-82
2023/07/24 11:57:54;;;;;;;18.63;11.48;;;;;;;;;;5084915;28;20039;-82
2023/07/24 12:00:20;;;;;;;17.38;10.98;;;;;;;;;;5112464;28;20049;-81
2023/07/24 12:02:46;;;;;;;13.90;10.23;;;;;;;;;;5103558;28;20052;-81
2023/07/24 12:05:11;;;;;;;16.23;10.75;;;;;;;;;;5095580;28;20012;-82
2023/07/24 12:07:37;;;;;;;18.90;10.63;;;;;;;;;;5094800;28;20048;-82
2023/07/24 12:10:03;;;;;;;18.20;11.13;;;;;;;;;;5094297;28;20474;-81
2023/07/24 12:12:39;;;;;;;17.75;10.73;;;;;;;;;;5076960;28;20024;-80
2023/07/24 12:15:05;;;;;;;16.85;10.60;;;;;;;;;;5090226;28;20102;-82
2023/07/24 12:17:30;;;;;;;18.58;11.52;;;;;;;;;;5083998;28;20028;-82
2023/07/24 12:19:56;;;;;;;17.27;10.85;;;;;;;;;;5076317;28;20051;-81
2023/07/24 12:22:22;;;;;;;17.52;10.93;;;;;;;;;;5074651;28;20465;-82
2023/07/24 12:24:47;;;;;;;19.35;11.32;;;;;;;;;;5074762;28;20029;-81
2023/07/24 12:27:13;;;;;;;18.75;11.05;;;;;;;;;;5074887;28;20507;-81
2023/07/24 12:29:38;;;;;;;15.93;11.27;;;;;;;;;;5074693;28;20111;-82
2023/07/24 12:32:04;;;;;;;21.45;11.80;;;;;;;;;;5074446;28;20502;-82
2023/07/24 12:34:29;;;;;;;19.92;11.43;;;;;;;;;;5074779;28;20132;-82
2023/07/24 12:36:55;;;;;;;18.00;11.48;;;;;;;;;;5040147;28;20074;-83
2023/07/24 12:39:20;;;;;;;15.93;11.45;;;;;;;;;;5074766;28;20173;-82
2023/07/24 12:41:51;;;;;;;19.13;11.50;;;;;;;;;;5076167;28;20064;-80
2023/07/24 12:44:17;;;;;;;20.20;11.45;;;;;;;;;;5057798;28;20515;-82
2023/07/24 12:46:42;;;;;;;16.50;10.60;;;;;;;;;;5074540;28;20062;-81
2023/07/24 12:49:08;;;;;;;17.52;11.30;;;;;;;;;;5074503;28;20024;-82
2023/07/24 12:51:33;;;;;;;18.55;10.85;;;;;;;;;;5074570;28;20430;-82
2023/07/24 12:53:58;;;;;;;19.10;11.38;;;;;;;;;;5074034;28;20473;-82
2023/07/24 12:56:24;;;;;;;20.55;11.38;;;;;;;;;;5074124;28;20024;-82
2023/07/24 12:58:49;;;;;;;19.63;11.18;;;;;;;;;;5074165;28;20043;-82
2023/07/24 13:01:15;;;;;;;18.90;12.25;;;;;;;;;;5074305;28;20028;-81
2023/07/24 13:03:40;;;;;;;21.40;11.68;;;;;;;;;;5056026;28;20048;-82
2023/07/24 13:06:06;;;;;;;18.27;11.18;;;;;;;;;;5085760;28;20047;-82
2023/07/24 13:08:31;;;;;;;20.88;11.63;;;;;;;;;;5074522;28;20416;-82
2023/07/24 13:10:56;;;;;;;20.13;11.38;;;;;;;;;;5073077;28;20450;-82
2023/07/24 13:13:33;;;;;;;19.20;11.43;;;;;;;;;;5074326;28;20418;-83
2023/07/24 13:15:59;;;;;;;29.52;12.40;;;;;;;;;;5073905;28;20028;-82
2023/07/24 13:18:24;;;;;;;17.38;11.38;;;;;;;;;;5072716;28;20036;-82
2023/07/24 13:20:50;;;;;;;20.50;11.88;;;;;;;;;;5074227;28;20029;-82
2023/07/24 13:23:15;;;;;;;19.08;11.90;;;;;;;;;;5072613;28;20371;-82
2023/07/24 13:25:40;;;;;;;21.58;11.48;;;;;;;;;;5075214;28;20260;-82
2023/07/24 13:28:06;;;;;;;20.05;12.07;;;;;;;;;;5076229;28;20119;-82
2023/07/24 13:30:31;;;;;;;20.10;11.80;;;;;;;;;;5066012;28;20079;-83
2023/07/24 13:32:57;;;;;;;19.70;11.50;;;;;;;;;;5081279;28;20033;-81
2023/07/24 13:35:22;;;;;;;19.13;12.45;;;;;;;;;;5086847;28;20033;-82
2023/07/24 13:37:48;;;;;;;18.98;12.35;;;;;;;;;;5073405;28;20032;-81
2023/07/24 13:40:13;;;;;;;20.92;12.32;;;;;;;;;;5074145;28;20327;-82
2023/07/24 13:42:38;;;;;;;19.45;10.90;;;;;;;;;;5073885;28;20149;-83
2023/07/24 13:45:04;;;;;;;25.58;12.23;;;;;;;;;;5073783;28;20040;-82
2023/07/24 13:47:30;;;;;;;17.77;12.45;;;;;;;;;;5073657;28;20033;-80
2023/07/24 13:49:55;;;;;;;18.70;11.75;;;;;;;;;;5076009;28;20028;-83
2023/07/24 13:52:21;;;;;;;22.45;11.52;;;;;;;;;;5082952;28;20025;-81
2023/07/24 13:54:46;;;;;;;19.98;12.02;;;;;;;;;;5078061;28;20123;-82
2023/07/24 13:57:13;;;;;;;19.02;11.68;;;;;;;;;;5077368;28;20025;-81
2023/07/24 13:59:39;;;;;;;19.30;11.65;;;;;;;;;;5077491;28;20041;-82
2023/07/24 14:02:04;;;;;;;18.77;12.13;;;;;;;;;;5079304;28;20032;-82
2023/07/24 14:04:30;;;;;;;21.63;11.98;;;;;;;;;;5117707;28;20030;-82
2023/07/24 14:06:55;;;;;;;19.08;12.07;;;;;;;;;;5118058;28;20031;-82
2023/07/24 14:09:21;;;;;;;21.63;12.65;;;;;;;;;;5099267;28;20031;-82
2023/07/24 14:11:46;;;;;;;20.88;12.48;;;;;;;;;;5117896;28;20031;-82
2023/07/24 14:14:12;;;;;;;20.58;11.70;;;;;;;;;;5117833;28;20061;-81
2023/07/24 14:16:37;;;;;;;15.43;11.38;;;;;;;;;;5121998;28;20348;-80
2023/07/24 14:19:03;;;;;;;19.55;12.40;;;;;;;;;;5099951;28;20031;-81
2023/07/24 14:21:28;;;;;;;20.88;11.73;;;;;;;;;;5099456;28;20019;-81
2023/07/24 14:23:53;;;;;;;18.38;12.05;;;;;;;;;;5099217;28;20110;-82
2023/07/24 14:26:19;;;;;;;20.88;13.07;;;;;;;;;;5117642;28;20023;-81
2023/07/24 14:28:50;;;;;;;21.98;12.32;;;;;;;;;;5117644;28;20448;-82